createdAt,value
2023-05-08T00:01:48.646Z,101711.84
2023-05-08T00:04:20.839Z,101701.44
2023-05-08T00:06:51.742Z,101714.72
2023-05-08T00:09:22.361Z,101702.72
2023-05-08T00:11:52.477Z,101705.94
2023-05-08T00:14:22.562Z,101708.63
2023-05-08T00:16:55.240Z,101702.50
2023-05-08T00:19:25.880Z,101702.91
2023-05-08T00:21:56.125Z,101679.56
2023-05-08T00:24:26.555Z,101703.59
2023-05-08T00:26:56.610Z,101700.03
2023-05-08T00:29:27.050Z,101711.88
2023-05-08T00:31:59.706Z,101711.88
2023-05-08T00:34:29.716Z,101712.75
2023-05-08T00:37:00.352Z,101708.09
2023-05-08T00:39:31.076Z,101703.44
2023-05-08T00:42:01.355Z,101711.34
2023-05-08T00:44:31.306Z,101714.03
2023-05-08T00:47:04.037Z,101707.94
2023-05-08T00:49:35.822Z,101705.41
2023-05-08T00:52:08.784Z,101674.75
2023-05-08T00:54:39.135Z,101706.50
2023-05-08T00:57:10.658Z,101707.94
2023-05-08T00:59:42.906Z,101712.22
2023-05-08T01:02:16.543Z,101711.13
2023-05-08T01:04:47.931Z,101700.03
2023-05-08T01:07:18.136Z,101701.81
2023-05-08T01:09:48.378Z,101695.75
2023-05-08T01:12:23.522Z,101703.63
2023-05-08T01:15:07.644Z,101693.94
2023-05-08T01:17:53.858Z,101695.53
2023-05-08T01:20:35.536Z,101702.19
2023-05-08T01:23:46.853Z,101705.06
2023-05-08T01:26:46.928Z,101691.78
2023-05-08T01:29:34.113Z,101696.63
2023-05-08T01:32:15.320Z,101691.06
2023-05-08T01:34:54.826Z,101693.38
2023-05-08T01:37:33.189Z,101690.69
2023-05-08T01:40:13.265Z,101687.13
2023-05-08T01:42:52.470Z,101688.72
2023-05-08T01:45:25.429Z,101696.06
2023-05-08T01:48:07.084Z,101691.56
2023-05-08T01:50:41.550Z,101697.13
2023-05-08T01:53:17.116Z,101694.09
2023-05-08T01:55:51.536Z,101695.00
2023-05-08T01:58:22.596Z,101702.13
2023-05-08T02:00:53.759Z,101699.63
2023-05-08T02:03:27.951Z,101696.03
2023-05-08T02:06:00.412Z,101697.63
2023-05-08T02:08:32.945Z,101689.59
2023-05-08T02:11:04.778Z,101697.09
2023-05-08T02:13:36.219Z,101692.78
2023-05-08T02:16:07.989Z,101689.19
2023-05-08T02:18:43.191Z,101667.66
2023-05-08T02:21:18.635Z,101699.22
2023-05-08T02:23:49.965Z,101695.63
2023-05-08T02:26:21.581Z,101697.44
2023-05-08T02:28:52.472Z,101705.66
2023-05-08T02:31:24.159Z,101698.16
2023-05-08T02:33:57.598Z,101697.78
2023-05-08T02:36:30.744Z,101703.53
2023-05-08T02:39:03.116Z,101687.53
2023-05-08T02:41:36.032Z,101699.94
2023-05-08T02:44:06.135Z,101702.78
2023-05-08T02:46:47.008Z,101701.88
2023-05-08T02:49:30.628Z,101690.41
2023-05-08T02:52:13.842Z,101695.59
2023-05-08T02:54:47.451Z,101698.09
2023-05-08T02:57:25.805Z,101694.84
2023-05-08T03:00:02.475Z,101694.84
2023-05-08T03:02:40.238Z,101691.59
2023-05-08T03:05:18.392Z,101683.72
2023-05-08T03:07:53.051Z,101685.84
2023-05-08T03:10:28.026Z,101685.50
2023-05-08T03:13:00.943Z,101684.03
2023-05-08T03:15:36.422Z,101683.66
2023-05-08T03:18:11.809Z,101688.50
2023-05-08T03:20:57.319Z,101683.66
2023-05-08T03:23:30.747Z,101683.28
2023-05-08T03:26:02.063Z,101687.22
2023-05-08T03:28:33.448Z,101682.03
2023-05-08T03:31:04.687Z,101680.78
2023-05-08T03:33:36.011Z,101683.47
2023-05-08T03:36:16.678Z,101680.03
2023-05-08T03:38:48.278Z,101689.88
2023-05-08T03:41:19.929Z,101682.19
2023-05-08T03:43:51.407Z,101673.78
2023-05-08T03:46:23.246Z,101673.94
2023-05-08T03:48:54.854Z,101677.19
2023-05-08T03:51:29.531Z,101665.16
2023-05-08T03:54:00.394Z,101673.94
2023-05-08T03:56:33.356Z,101682.53
2023-05-08T03:59:12.924Z,101681.81
2023-05-08T04:01:51.922Z,101681.47
2023-05-08T04:04:30.112Z,101677.19
2023-05-08T04:07:09.080Z,101684.16
2023-05-08T04:09:54.733Z,101676.63
2023-05-08T04:12:34.890Z,101676.81
2023-05-08T04:15:13.319Z,101679.31
2023-05-08T04:17:47.412Z,101686.88
2023-05-08T04:20:22.334Z,101684.56
2023-05-08T04:22:57.814Z,101687.25
2023-05-08T04:25:29.156Z,101685.81
2023-05-08T04:27:59.434Z,101693.00
2023-05-08T04:30:31.378Z,101686.22
2023-05-08T04:33:02.350Z,101689.78
2023-05-08T04:35:32.944Z,101698.03
2023-05-08T04:38:05.892Z,101691.25
2023-05-08T04:40:41.799Z,101700.94
2023-05-08T04:43:13.964Z,101667.94
2023-05-08T04:45:49.977Z,101708.47
2023-05-08T04:48:20.029Z,101702.94
2023-05-08T04:50:50.245Z,101703.81
2023-05-08T04:53:23.104Z,101698.78
2023-05-08T04:55:53.355Z,101698.09
2023-05-08T04:58:23.687Z,101705.09
2023-05-08T05:00:54.687Z,101702.06
2023-05-08T05:03:25.239Z,101705.16
2023-05-08T05:06:18.106Z,101703.72
2023-05-08T05:08:51.312Z,101700.75
2023-05-08T05:11:21.770Z,101707.97
2023-05-08T05:13:52.066Z,101697.47
2023-05-08T05:16:22.932Z,101695.97
2023-05-08T05:18:53.544Z,101693.00
2023-05-08T05:21:29.280Z,101686.88
2023-05-08T05:24:02.041Z,101688.53
2023-05-08T05:26:36.797Z,101691.66
2023-05-08T05:29:10.298Z,101686.53
2023-05-08T05:31:44.160Z,101695.66
2023-05-08T05:34:14.691Z,101698.72
2023-05-08T05:36:46.203Z,101698.44
2023-05-08T05:39:19.472Z,101701.88
2023-05-08T05:41:49.729Z,101704.25
2023-05-08T05:44:19.907Z,101706.78
2023-05-08T05:46:50.366Z,101705.88
2023-05-08T05:49:20.628Z,101704.84
2023-05-08T05:51:50.618Z,101704.25
2023-05-08T05:54:23.668Z,101707.34
2023-05-08T05:56:53.958Z,101709.22
2023-05-08T05:59:24.034Z,101704.41
2023-05-08T06:01:54.942Z,101699.19
2023-05-08T06:04:25.295Z,101700.38
2023-05-08T06:06:55.420Z,101698.72
2023-05-08T06:09:27.969Z,101711.28
2023-05-08T06:12:01.297Z,101720.25
2023-05-08T06:14:31.947Z,101717.06
2023-05-08T06:17:02.106Z,101686.50
2023-05-08T06:19:32.222Z,101723.13
2023-05-08T06:22:02.183Z,101733.06
2023-05-08T06:24:35.746Z,101725.97
2023-05-08T06:27:05.800Z,101719.41
2023-05-08T06:29:35.812Z,101721.38
2023-05-08T06:32:06.115Z,101722.31
2023-05-08T06:34:36.265Z,101721.41
2023-05-08T06:37:07.056Z,101732.66
2023-05-08T06:39:39.990Z,101729.63
2023-05-08T06:42:10.101Z,101727.84
2023-05-08T06:44:43.634Z,101723.47
2023-05-08T06:47:13.795Z,101724.59
2023-05-08T06:49:43.890Z,101728.84
2023-05-08T06:52:14.777Z,101726.97
2023-05-08T06:54:56.960Z,101734.78
2023-05-08T06:57:29.456Z,101732.91
2023-05-08T06:59:59.974Z,101727.56
2023-05-08T07:02:30.060Z,101733.06
2023-05-08T07:05:00.154Z,101737.81
2023-05-08T07:07:37.872Z,101737.81
2023-05-08T07:10:13.232Z,101732.41
2023-05-08T07:12:44.530Z,101736.91
2023-05-08T07:15:26.543Z,101724.63
2023-05-08T07:17:57.944Z,101731.94
2023-05-08T07:20:41.189Z,101729.50
2023-05-08T07:23:14.145Z,101729.69
2023-05-08T07:25:47.472Z,101730.25
2023-05-08T07:28:23.471Z,101730.38
2023-05-08T07:30:53.798Z,101709.97
2023-05-08T07:33:23.753Z,101724.38
2023-05-08T07:35:56.565Z,101721.47
2023-05-08T07:38:26.736Z,101714.75
2023-05-08T07:41:01.750Z,101716.81
2023-05-08T07:43:31.762Z,101713.38
2023-05-08T07:46:02.024Z,101696.78
2023-05-08T07:48:32.795Z,101719.06
2023-05-08T07:51:11.392Z,101733.47
2023-05-08T07:53:41.456Z,101729.72
2023-05-08T07:56:14.026Z,101734.78
2023-05-08T07:58:47.994Z,101731.56
2023-05-08T08:01:19.169Z,101729.88
2023-05-08T08:03:51.873Z,101710.59
2023-05-08T08:06:22.863Z,101729.69
2023-05-08T08:08:54.720Z,101737.19
2023-05-08T08:11:27.719Z,101736.47
2023-05-08T08:14:00.952Z,101731.16
2023-05-08T08:16:33.754Z,101742.97
2023-05-08T08:19:03.798Z,101727.47
2023-05-08T08:21:34.003Z,101726.34
2023-05-08T08:24:03.951Z,101724.41
2023-05-08T08:26:38.379Z,101729.19
2023-05-08T08:29:11.118Z,101722.72
2023-05-08T08:31:41.302Z,101719.25
2023-05-08T08:34:11.883Z,101719.03
2023-05-08T08:36:42.595Z,101726.75
2023-05-08T08:39:14.742Z,101725.56
2023-05-08T08:41:48.082Z,101721.13
2023-05-08T08:44:18.153Z,101722.03
2023-05-08T08:46:54.014Z,101717.88
2023-05-08T08:49:31.585Z,101714.06
2023-05-08T08:52:09.813Z,101711.09
2023-05-08T08:54:41.591Z,101713.19
2023-05-08T08:57:23.124Z,101712.28
2023-05-08T08:59:53.812Z,101709.03
2023-05-08T09:02:26.535Z,101703.50
2023-05-08T09:04:59.188Z,101718.56
2023-05-08T09:07:30.297Z,101706.94
2023-05-08T09:10:02.782Z,101692.66
2023-05-08T09:12:42.975Z,101686.06
2023-05-08T09:15:13.472Z,101684.88
2023-05-08T09:17:43.857Z,101688.31
2023-05-08T09:20:17.686Z,101680.69
2023-05-08T09:22:48.214Z,101689.00
2023-05-08T09:25:19.221Z,101686.66
2023-05-08T09:27:53.983Z,101681.31
2023-05-08T09:30:24.134Z,101691.13
2023-05-08T09:33:04.639Z,101694.97
2023-05-08T09:35:39.515Z,101663.34
2023-05-08T09:38:09.846Z,101682.97
2023-05-08T09:40:39.879Z,101683.06
2023-05-08T09:43:17.487Z,101685.78
2023-05-08T09:45:53.565Z,101688.84
2023-05-08T09:48:40.045Z,101686.53
2023-05-08T09:51:12.244Z,101690.41
2023-05-08T09:53:45.028Z,101689.06
2023-05-08T09:56:30.357Z,101682.66
2023-05-08T09:59:15.680Z,101672.81
2023-05-08T10:01:46.091Z,101680.00
2023-05-08T10:04:16.230Z,101669.31
2023-05-08T10:06:46.989Z,101673.78
2023-05-08T10:09:18.133Z,101664.81
2023-05-08T10:11:55.653Z,101666.44
2023-05-08T10:14:30.554Z,101673.28
2023-05-08T10:17:03.471Z,101673.94
2023-05-08T10:19:37.588Z,101677.69
2023-05-08T10:22:08.590Z,101672.09
2023-05-08T10:24:44.036Z,101680.56
2023-05-08T10:27:20.885Z,101677.25
2023-05-08T10:30:04.352Z,101672.09
2023-05-08T10:32:41.434Z,101677.88
2023-05-08T10:35:15.423Z,101661.03
2023-05-08T10:37:48.948Z,101670.69
2023-05-08T10:40:21.934Z,101665.88
2023-05-08T10:42:53.890Z,101667.31
2023-05-08T10:45:30.362Z,101659.16
2023-05-08T10:48:18.974Z,101670.47
2023-05-08T10:51:02.659Z,101668.31
2023-05-08T10:53:39.836Z,101654.81
2023-05-08T10:56:21.162Z,101646.47
2023-05-08T10:59:08.383Z,101656.63
2023-05-08T11:01:42.148Z,101657.59
2023-05-08T11:04:34.301Z,101656.31
2023-05-08T11:07:11.782Z,101661.41
2023-05-08T11:09:51.342Z,101654.09
2023-05-08T11:12:31.768Z,101653.50
2023-05-08T11:15:06.457Z,101654.00
2023-05-08T11:17:39.041Z,101654.16
2023-05-08T11:20:17.068Z,101641.81
2023-05-08T11:22:50.877Z,101638.88
2023-05-08T11:25:20.931Z,101640.66
2023-05-08T11:28:15.532Z,101645.88
2023-05-08T11:30:47.900Z,101640.56
2023-05-08T11:33:21.287Z,101634.31
2023-05-08T11:35:57.000Z,101636.56
2023-05-08T11:38:36.272Z,101627.16
2023-05-08T11:41:10.652Z,101633.81
2023-05-08T11:44:34.228Z,101631.91
2023-05-08T11:47:08.782Z,101630.22
2023-05-08T11:49:41.501Z,101629.72
2023-05-08T11:52:11.773Z,101632.28
2023-05-08T11:54:42.029Z,101634.84
2023-05-08T11:57:14.220Z,101642.72
2023-05-08T11:59:45.053Z,101630.50
2023-05-08T12:02:16.042Z,101643.75
2023-05-08T12:04:50.421Z,101632.53
2023-05-08T12:07:21.929Z,101650.50
2023-05-08T12:09:52.310Z,101652.66
2023-05-08T12:12:25.981Z,101646.19
2023-05-08T12:14:56.119Z,101641.44
2023-05-08T12:17:29.255Z,101645.38
2023-05-08T12:20:16.190Z,101641.44
2023-05-08T12:22:53.982Z,101637.13
2023-05-08T12:25:24.240Z,101642.47
2023-05-08T12:27:54.406Z,101629.16
2023-05-08T12:30:26.938Z,101631.97
2023-05-08T12:32:57.757Z,101639.09
2023-05-08T12:35:32.812Z,101622.41
2023-05-08T12:38:05.342Z,101630.47
2023-05-08T12:40:43.791Z,101628.94
2023-05-08T12:43:27.825Z,101642.34
2023-05-08T12:46:00.040Z,101625.47
2023-05-08T12:48:30.611Z,101604.63
2023-05-08T12:51:08.694Z,101641.03
2023-05-08T12:53:40.485Z,101630.63
2023-05-08T12:56:11.377Z,101629.03
2023-05-08T12:58:41.344Z,101626.38
2023-05-08T13:01:13.950Z,101626.03
2023-05-08T13:03:47.231Z,101623.34
2023-05-08T13:06:26.557Z,101620.78
2023-05-08T13:08:57.956Z,101627.28
2023-05-08T13:11:38.634Z,101631.84
2023-05-08T13:14:09.032Z,101618.44
2023-05-08T13:16:48.585Z,101617.00
2023-05-08T13:19:21.833Z,101619.13
2023-05-08T13:21:54.390Z,101617.19
2023-05-08T13:24:25.974Z,101616.06
2023-05-08T13:26:56.109Z,101599.84
2023-05-08T13:29:26.183Z,101600.75
2023-05-08T13:31:58.250Z,101607.34
2023-05-08T13:34:28.328Z,101590.00
2023-05-08T13:37:03.289Z,101589.22
2023-05-08T13:39:37.434Z,101574.59
2023-05-08T13:42:20.431Z,101560.53
2023-05-08T13:44:50.507Z,101575.84
2023-05-08T13:47:20.823Z,101574.00
2023-05-08T13:50:08.523Z,101558.81
2023-05-08T13:52:48.508Z,101570.19
2023-05-08T13:55:21.253Z,101567.06
2023-05-08T13:57:51.667Z,101574.06
2023-05-08T14:00:28.937Z,101569.06
2023-05-08T14:02:59.124Z,101560.53
2023-05-08T14:05:30.076Z,101544.09
2023-05-08T14:08:02.802Z,101551.22
2023-05-08T14:10:33.173Z,101558.66
2023-05-08T14:13:04.215Z,101549.13
2023-05-08T14:15:37.276Z,101556.53
2023-05-08T14:18:08.533Z,101550.88
2023-05-08T14:20:39.980Z,101549.13
2023-05-08T14:23:15.079Z,101552.44
2023-05-08T14:25:46.032Z,101547.78
2023-05-08T14:28:16.348Z,101532.34
2023-05-08T14:30:46.415Z,101552.00
2023-05-08T14:33:18.646Z,101542.78
2023-05-08T14:35:51.575Z,101542.47
2023-05-08T14:38:24.256Z,101539.00
2023-05-08T14:40:55.160Z,101530.88
2023-05-08T14:43:25.731Z,101538.19
2023-05-08T14:45:58.014Z,101533.78
2023-05-08T14:48:30.812Z,101529.53
2023-05-08T14:51:01.197Z,101515.56
2023-05-08T14:53:33.950Z,101524.53
2023-05-08T14:56:07.591Z,101519.22
2023-05-08T14:58:38.055Z,101514.34
2023-05-08T15:01:08.403Z,101518.19
2023-05-08T15:03:41.303Z,101511.44
2023-05-08T15:06:12.487Z,101510.88
2023-05-08T15:08:45.268Z,101511.31
2023-05-08T15:11:15.350Z,101513.28
2023-05-08T15:13:47.157Z,101506.88
2023-05-08T15:16:17.607Z,101510.53
2023-05-08T15:18:47.804Z,101512.91
2023-05-08T15:21:19.011Z,101507.56
2023-05-08T15:23:53.906Z,101507.91
2023-05-08T15:26:30.193Z,101502.69
2023-05-08T15:29:01.215Z,101506.44
2023-05-08T15:31:31.237Z,101493.31
2023-05-08T15:34:01.337Z,101499.31
2023-05-08T15:36:34.406Z,101502.31
2023-05-08T15:39:09.750Z,101500.88
2023-05-08T15:41:41.254Z,101488.44
2023-05-08T15:44:11.265Z,101483.34
2023-05-08T15:46:41.557Z,101488.88
2023-05-08T15:49:14.520Z,101492.44
2023-05-08T15:51:44.518Z,101483.91
2023-05-08T15:54:17.186Z,101491.91
2023-05-08T15:56:47.219Z,101482.91
2023-05-08T15:59:17.371Z,101489.13
2023-05-08T16:01:47.607Z,101497.56
2023-05-08T16:04:21.488Z,101493.03
2023-05-08T16:06:51.648Z,101484.56
2023-05-08T16:09:24.828Z,101480.59
2023-05-08T16:11:54.783Z,101481.81
2023-05-08T16:14:24.931Z,101462.03
2023-05-08T16:16:55.253Z,101480.25
2023-05-08T16:19:27.506Z,101483.59
2023-05-08T16:21:57.704Z,101480.91
2023-05-08T16:24:30.961Z,101491.03
2023-05-08T16:27:00.981Z,101482.25
2023-05-08T16:29:38.643Z,101482.91
2023-05-08T16:32:09.094Z,101482.81
2023-05-08T16:34:39.031Z,101475.81
2023-05-08T16:37:14.580Z,101472.72
2023-05-08T16:39:47.262Z,101467.59
2023-05-08T16:42:18.907Z,101458.25
2023-05-08T16:44:48.875Z,101473.13
2023-05-08T16:47:18.901Z,101479.13
2023-05-08T16:49:49.216Z,101474.56
2023-05-08T16:52:20.298Z,101442.91
2023-05-08T16:54:52.956Z,101481.56
2023-05-08T16:57:22.974Z,101476.25
2023-05-08T16:59:53.346Z,101478.19
2023-05-08T17:02:23.751Z,101477.97
2023-05-08T17:04:53.759Z,101476.66
2023-05-08T17:07:24.219Z,101468.41
2023-05-08T17:10:01.348Z,101475.94
2023-05-08T17:12:31.933Z,101476.63
2023-05-08T17:15:02.380Z,101482.59
2023-05-08T17:17:42.997Z,101473.50
2023-05-08T17:20:15.062Z,101473.91
2023-05-08T17:22:45.491Z,101475.25
2023-05-08T17:25:18.162Z,101476.47
2023-05-08T17:27:51.869Z,101466.66
2023-05-08T17:30:24.647Z,101486.72
2023-05-08T17:32:54.814Z,101479.59
2023-05-08T17:35:24.865Z,101477.56
2023-05-08T17:37:55.166Z,101477.97
2023-05-08T17:40:29.003Z,101480.16
2023-05-08T17:43:00.013Z,101470.38
2023-05-08T17:45:30.306Z,101472.59
2023-05-08T17:48:00.545Z,101478.25
2023-05-08T17:50:30.586Z,101478.75
2023-05-08T17:53:00.839Z,101474.97
2023-05-08T17:55:41.077Z,101486.56
2023-05-08T17:58:11.230Z,101483.56
2023-05-08T18:00:41.356Z,101478.84
2023-05-08T18:03:12.510Z,101479.41
2023-05-08T18:05:42.883Z,101485.91
2023-05-08T18:08:12.874Z,101481.22
2023-05-08T18:10:45.558Z,101487.63
2023-05-08T18:13:15.592Z,101486.22
2023-05-08T18:15:46.333Z,101482.31
2023-05-08T18:18:16.313Z,101490.38
2023-05-08T18:20:46.405Z,101481.31
2023-05-08T18:23:16.653Z,101485.78
2023-05-08T18:25:49.475Z,101482.88
2023-05-08T18:28:19.550Z,101489.22
2023-05-08T18:30:49.554Z,101490.53
2023-05-08T18:33:19.596Z,101498.44
2023-05-08T18:35:49.581Z,101487.75
2023-05-08T18:38:19.785Z,101497.53
2023-05-08T18:40:53.091Z,101490.41
2023-05-08T18:43:25.285Z,101494.25
2023-05-08T18:45:55.409Z,101494.66
2023-05-08T18:48:25.596Z,101497.69
2023-05-08T18:51:07.477Z,101490.06
2023-05-08T18:53:39.142Z,101486.50
2023-05-08T18:56:11.676Z,101483.59
2023-05-08T18:58:42.504Z,101490.81
2023-05-08T19:01:13.526Z,101489.44
2023-05-08T19:03:44.775Z,101503.50
2023-05-08T19:06:18.834Z,101499.72
2023-05-08T19:08:52.425Z,101498.44
2023-05-08T19:11:22.993Z,101492.81
2023-05-08T19:14:01.084Z,101502.69
2023-05-08T19:16:32.652Z,101493.06
2023-05-08T19:19:03.530Z,101505.47
2023-05-08T19:21:36.680Z,101500.91
2023-05-08T19:24:08.053Z,101503.94
2023-05-08T19:26:41.378Z,101495.03
2023-05-08T19:29:12.179Z,101496.31
2023-05-08T19:31:43.561Z,101501.88
2023-05-08T19:34:14.428Z,101499.72
2023-05-08T19:36:47.742Z,101491.69
2023-05-08T19:39:18.453Z,101498.28
2023-05-08T19:41:49.293Z,101494.72
2023-05-08T19:44:20.098Z,101501.78
2023-05-08T19:46:50.833Z,101503.19
2023-05-08T19:49:21.424Z,101499.50
2023-05-08T19:51:54.789Z,101489.56
2023-05-08T19:54:25.651Z,101499.72
2023-05-08T19:56:58.850Z,101494.38
2023-05-08T19:59:29.515Z,101497.38
2023-05-08T20:02:00.383Z,101488.50
2023-05-08T20:04:32.308Z,101485.69
2023-05-08T20:07:07.384Z,101493.94
2023-05-08T20:09:38.553Z,101493.50
2023-05-08T20:12:11.526Z,101486.53
2023-05-08T20:14:42.098Z,101494.91
2023-05-08T20:17:13.492Z,101487.03
2023-05-08T20:19:44.242Z,101482.56
2023-05-08T20:22:17.537Z,101490.81
2023-05-08T20:24:48.154Z,101482.31
2023-05-08T20:27:18.931Z,101479.63
2023-05-08T20:29:49.589Z,101480.94
2023-05-08T20:32:22.879Z,101478.16
2023-05-08T20:34:53.640Z,101477.13
2023-05-08T20:37:31.856Z,101476.09
2023-05-08T20:40:04.981Z,101456.09
2023-05-08T20:42:35.571Z,101480.91
2023-05-08T20:45:06.565Z,101471.25
2023-05-08T20:47:37.429Z,101478.88
2023-05-08T20:50:09.852Z,101442.19
2023-05-08T20:52:43.218Z,101471.47
2023-05-08T20:55:16.668Z,101464.81
2023-05-08T20:57:47.289Z,101468.72
2023-05-08T21:00:18.528Z,101472.28
2023-05-08T21:02:49.501Z,101471.09
2023-05-08T21:05:20.753Z,101474.88
2023-05-08T21:07:58.569Z,101478.03
2023-05-08T21:10:32.240Z,101482.56
2023-05-08T21:13:03.884Z,101482.13
2023-05-08T21:15:35.164Z,101479.03
2023-05-08T21:18:06.009Z,101474.31
2023-05-08T21:20:37.043Z,101479.97
2023-05-08T21:23:10.408Z,101476.91
2023-05-08T21:25:40.888Z,101476.63
2023-05-08T21:28:11.682Z,101464.28
2023-05-08T21:30:46.520Z,101460.16
2023-05-08T21:33:19.135Z,101468.50
2023-05-08T21:35:51.985Z,101457.94
2023-05-08T21:38:40.883Z,101461.72
2023-05-08T21:41:14.239Z,101464.13
2023-05-08T21:43:44.931Z,101451.91
2023-05-08T21:46:15.675Z,101450.13
2023-05-08T21:48:46.432Z,101449.84
2023-05-08T21:51:16.923Z,101443.16
2023-05-08T21:53:50.154Z,101436.84
2023-05-08T21:56:22.231Z,101438.50
2023-05-08T21:58:55.718Z,101440.00
2023-05-08T22:01:26.400Z,101423.53
2023-05-08T22:03:57.169Z,101427.72
2023-05-08T22:06:28.192Z,101436.91
2023-05-08T22:09:02.312Z,101439.91
2023-05-08T22:11:32.826Z,101437.09
2023-05-08T22:14:05.564Z,101441.59
2023-05-08T22:16:39.057Z,101433.56
2023-05-08T22:19:10.197Z,101430.63
2023-05-08T22:21:43.242Z,101429.28
2023-05-08T22:24:19.281Z,101428.69
2023-05-08T22:26:49.925Z,101422.47
2023-05-08T22:29:23.316Z,101423.81
2023-05-08T22:31:55.646Z,101419.06
2023-05-08T22:34:26.832Z,101421.16
2023-05-08T22:36:59.263Z,101416.41
2023-05-08T22:39:32.563Z,101410.78
2023-05-08T22:42:03.261Z,101415.56
2023-05-08T22:44:33.862Z,101417.81
2023-05-08T22:47:08.409Z,101420.94
2023-05-08T22:49:42.816Z,101412.03
2023-05-08T22:52:17.199Z,101417.81
2023-05-08T22:54:50.377Z,101413.22
2023-05-08T22:57:28.294Z,101409.63
2023-05-08T22:59:58.864Z,101411.00
2023-05-08T23:02:35.054Z,101413.25
2023-05-08T23:05:18.218Z,101407.00
2023-05-08T23:07:57.647Z,101404.94
2023-05-08T23:10:31.332Z,101399.56
2023-05-08T23:13:01.990Z,101396.00
2023-05-08T23:15:33.552Z,101399.00
2023-05-08T23:18:04.545Z,101363.28
2023-05-08T23:20:35.776Z,101389.91
2023-05-08T23:23:09.890Z,101388.56
2023-05-08T23:25:50.170Z,101385.00
2023-05-08T23:28:23.090Z,101380.25
2023-05-08T23:30:53.767Z,101375.78
2023-05-08T23:33:27.297Z,101381.41
2023-05-08T23:35:58.897Z,101382.47
2023-05-08T23:38:36.932Z,101383.06
2023-05-08T23:41:11.104Z,101378.44
2023-05-08T23:43:41.322Z,101367.16
2023-05-08T23:46:14.044Z,101372.78
2023-05-08T23:48:44.632Z,101365.66
2023-05-08T23:51:19.083Z,101354.53
2023-05-08T23:53:53.171Z,101357.34
2023-05-08T23:56:28.355Z,101367.16
2023-05-08T23:58:59.190Z,101358.84
